sensor_id;sensor_type;location;lat;lon;timestamp;temperature;humidity
4411;DHT22;2218;51.408;7.208;2022-12-18T00:02:22;17.50;22.20
4411;DHT22;2218;51.408;7.208;2022-12-18T00:04:49;17.50;22.20
4411;DHT22;2218;51.408;7.208;2022-12-18T00:07:16;17.50;22.20
4411;DHT22;2218;51.408;7.208;2022-12-18T00:09:43;17.50;22.20
4411;DHT22;2218;51.408;7.208;2022-12-18T00:12:09;17.50;22.20
4411;DHT22;2218;51.408;7.208;2022-12-18T00:14:36;17.50;22.20
4411;DHT22;2218;51.408;7.208;2022-12-18T00:17:03;17.40;22.10
4411;DHT22;2218;51.408;7.208;2022-12-18T00:19:31;17.40;22.20
4411;DHT22;2218;51.408;7.208;2022-12-18T00:21:58;17.40;22.20
4411;DHT22;2218;51.408;7.208;2022-12-18T00:24:25;17.40;22.20
4411;DHT22;2218;51.408;7.208;2022-12-18T00:26:52;17.40;22.20
4411;DHT22;2218;51.408;7.208;2022-12-18T00:29:19;17.40;22.20
4411;DHT22;2218;51.408;7.208;2022-12-18T00:31:46;17.40;22.20
4411;DHT22;2218;51.408;7.208;2022-12-18T00:34:13;17.30;22.10
4411;DHT22;2218;51.408;7.208;2022-12-18T00:36:42;17.30;22.10
4411;DHT22;2218;51.408;7.208;2022-12-18T00:39:10;17.30;22.10
4411;DHT22;2218;51.408;7.208;2022-12-18T00:41:37;17.30;22.10
4411;DHT22;2218;51.408;7.208;2022-12-18T00:44:22;17.30;22.10
4411;DHT22;2218;51.408;7.208;2022-12-18T00:46:50;17.30;22.10
4411;DHT22;2218;51.408;7.208;2022-12-18T00:49:18;17.30;22.10
4411;DHT22;2218;51.408;7.208;2022-12-18T00:51:47;17.30;22.10
4411;DHT22;2218;51.408;7.208;2022-12-18T00:54:15;17.30;22.10
4411;DHT22;2218;51.408;7.208;2022-12-18T00:56:44;17.30;22.10
4411;DHT22;2218;51.408;7.208;2022-12-18T00:59:11;17.30;22.10
4411;DHT22;2218;51.408;7.208;2022-12-18T01:01:38;17.30;22.10
4411;DHT22;2218;51.408;7.208;2022-12-18T01:04:05;17.30;22.10
4411;DHT22;2218;51.408;7.208;2022-12-18T01:06:32;17.20;22.00
4411;DHT22;2218;51.408;7.208;2022-12-18T01:09:01;17.20;22.10
4411;DHT22;2218;51.408;7.208;2022-12-18T01:11:28;17.20;22.10
4411;DHT22;2218;51.408;7.208;2022-12-18T01:13:55;17.20;22.10
4411;DHT22;2218;51.408;7.208;2022-12-18T01:16:24;17.20;22.10
4411;DHT22;2218;51.408;7.208;2022-12-18T01:18:52;17.20;22.10
4411;DHT22;2218;51.408;7.208;2022-12-18T01:21:21;17.30;22.00
4411;DHT22;2218;51.408;7.208;2022-12-18T01:23:51;17.30;21.90
4411;DHT22;2218;51.408;7.208;2022-12-18T01:26:20;17.30;21.80
4411;DHT22;2218;51.408;7.208;2022-12-18T01:28:47;17.40;21.90
4411;DHT22;2218;51.408;7.208;2022-12-18T01:31:17;17.40;21.90
4411;DHT22;2218;51.408;7.208;2022-12-18T01:33:49;17.50;22.00
4411;DHT22;2218;51.408;7.208;2022-12-18T01:36:18;17.50;21.90
4411;DHT22;2218;51.408;7.208;2022-12-18T01:38:47;17.50;21.90
4411;DHT22;2218;51.408;7.208;2022-12-18T01:41:17;17.50;21.80
4411;DHT22;2218;51.408;7.208;2022-12-18T01:43:52;17.60;21.80
4411;DHT22;2218;51.408;7.208;2022-12-18T01:46:25;17.60;21.80
4411;DHT22;2218;51.408;7.208;2022-12-18T01:48:57;17.60;21.70
4411;DHT22;2218;51.408;7.208;2022-12-18T01:51:27;17.60;21.70
4411;DHT22;2218;51.408;7.208;2022-12-18T01:53:57;17.60;21.70
4411;DHT22;2218;51.408;7.208;2022-12-18T01:56:26;17.60;21.70
4411;DHT22;2218;51.408;7.208;2022-12-18T01:58:59;17.60;21.70
4411;DHT22;2218;51.408;7.208;2022-12-18T02:01:29;17.70;21.70
4411;DHT22;2218;51.408;7.208;2022-12-18T02:04:19;17.70;21.60
4411;DHT22;2218;51.408;7.208;2022-12-18T02:06:50;17.70;21.60
4411;DHT22;2218;51.408;7.208;2022-12-18T02:09:31;17.70;21.50
4411;DHT22;2218;51.408;7.208;2022-12-18T02:12:08;17.70;21.50
4411;DHT22;2218;51.408;7.208;2022-12-18T02:14:47;17.70;21.40
4411;DHT22;2218;51.408;7.208;2022-12-18T02:17:23;17.70;21.40
4411;DHT22;2218;51.408;7.208;2022-12-18T02:20:05;17.80;21.50
4411;DHT22;2218;51.408;7.208;2022-12-18T02:22:47;17.80;21.50
4411;DHT22;2218;51.408;7.208;2022-12-18T02:25:38;17.80;21.50
4411;DHT22;2218;51.408;7.208;2022-12-18T02:28:16;17.70;21.40
4411;DHT22;2218;51.408;7.208;2022-12-18T02:30:48;17.80;21.50
4411;DHT22;2218;51.408;7.208;2022-12-18T02:33:19;17.80;21.60
4411;DHT22;2218;51.408;7.208;2022-12-18T02:35:51;17.80;21.60
4411;DHT22;2218;51.408;7.208;2022-12-18T02:38:22;17.80;21.50
4411;DHT22;2218;51.408;7.208;2022-12-18T02:40:53;17.80;21.40
4411;DHT22;2218;51.408;7.208;2022-12-18T02:43:23;17.80;21.40
4411;DHT22;2218;51.408;7.208;2022-12-18T02:45:53;17.80;21.50
4411;DHT22;2218;51.408;7.208;2022-12-18T02:48:24;17.80;21.50
4411;DHT22;2218;51.408;7.208;2022-12-18T02:51:00;17.80;21.40
4411;DHT22;2218;51.408;7.208;2022-12-18T02:53:37;17.80;21.40
4411;DHT22;2218;51.408;7.208;2022-12-18T02:56:15;17.80;21.30
4411;DHT22;2218;51.408;7.208;2022-12-18T02:58:56;17.80;21.30
4411;DHT22;2218;51.408;7.208;2022-12-18T03:01:51;17.90;21.40
4411;DHT22;2218;51.408;7.208;2022-12-18T03:04:26;17.80;21.30
4411;DHT22;2218;51.408;7.208;2022-12-18T03:07:04;17.80;21.30
4411;DHT22;2218;51.408;7.208;2022-12-18T03:09:38;17.80;21.30
4411;DHT22;2218;51.408;7.208;2022-12-18T03:12:14;17.80;21.30
4411;DHT22;2218;51.408;7.208;2022-12-18T03:14:58;17.80;21.30
4411;DHT22;2218;51.408;7.208;2022-12-18T03:17:31;17.80;21.30
4411;DHT22;2218;51.408;7.208;2022-12-18T03:20:04;17.80;21.30
4411;DHT22;2218;51.408;7.208;2022-12-18T03:22:37;17.80;21.30
4411;DHT22;2218;51.408;7.208;2022-12-18T03:25:07;17.80;21.30
4411;DHT22;2218;51.408;7.208;2022-12-18T03:27:39;17.80;21.30
4411;DHT22;2218;51.408;7.208;2022-12-18T03:30:14;17.80;21.30
4411;DHT22;2218;51.408;7.208;2022-12-18T03:32:47;17.80;21.30
4411;DHT22;2218;51.408;7.208;2022-12-18T03:35:23;17.80;21.30
4411;DHT22;2218;51.408;7.208;2022-12-18T03:37:56;17.80;21.30
4411;DHT22;2218;51.408;7.208;2022-12-18T03:40:29;17.80;21.30
4411;DHT22;2218;51.408;7.208;2022-12-18T03:43:05;17.80;21.30
4411;DHT22;2218;51.408;7.208;2022-12-18T03:45:45;17.80;21.30
4411;DHT22;2218;51.408;7.208;2022-12-18T03:48:24;17.80;21.30
4411;DHT22;2218;51.408;7.208;2022-12-18T03:51:04;17.80;21.40
4411;DHT22;2218;51.408;7.208;2022-12-18T03:53:39;17.80;21.40
4411;DHT22;2218;51.408;7.208;2022-12-18T03:56:16;17.80;21.30
4411;DHT22;2218;51.408;7.208;2022-12-18T03:58:46;17.80;21.30
4411;DHT22;2218;51.408;7.208;2022-12-18T04:01:28;17.80;21.30
4411;DHT22;2218;51.408;7.208;2022-12-18T04:04:00;17.80;21.40
4411;DHT22;2218;51.408;7.208;2022-12-18T04:06:36;17.80;21.40
4411;DHT22;2218;51.408;7.208;2022-12-18T04:09:06;17.80;21.40
4411;DHT22;2218;51.408;7.208;2022-12-18T04:11:37;17.80;21.40
4411;DHT22;2218;51.408;7.208;2022-12-18T04:14:08;17.70;21.30
4411;DHT22;2218;51.408;7.208;2022-12-18T04:16:37;17.70;21.30
4411;DHT22;2218;51.408;7.208;2022-12-18T04:19:07;17.80;21.40
4411;DHT22;2218;51.408;7.208;2022-12-18T04:21:38;17.80;21.40
4411;DHT22;2218;51.408;7.208;2022-12-18T04:24:06;17.80;21.40
4411;DHT22;2218;51.408;7.208;2022-12-18T04:26:35;17.80;21.30
4411;DHT22;2218;51.408;7.208;2022-12-18T04:29:18;17.80;21.40
4411;DHT22;2218;51.408;7.208;2022-12-18T04:31:48;17.80;21.40
4411;DHT22;2218;51.408;7.208;2022-12-18T04:34:15;17.80;21.30
4411;DHT22;2218;51.408;7.208;2022-12-18T04:36:48;17.80;21.30
4411;DHT22;2218;51.408;7.208;2022-12-18T04:39:19;17.80;21.30
4411;DHT22;2218;51.408;7.208;2022-12-18T04:41:48;17.70;21.30
4411;DHT22;2218;51.408;7.208;2022-12-18T04:44:15;17.80;21.30
4411;DHT22;2218;51.408;7.208;2022-12-18T04:46:42;17.70;21.20
4411;DHT22;2218;51.408;7.208;2022-12-18T04:49:10;17.80;21.30
4411;DHT22;2218;51.408;7.208;2022-12-18T04:51:37;17.70;21.20
4411;DHT22;2218;51.408;7.208;2022-12-18T04:54:04;17.80;21.30
4411;DHT22;2218;51.408;7.208;2022-12-18T04:56:32;17.80;21.30
4411;DHT22;2218;51.408;7.208;2022-12-18T04:58:58;17.80;21.30
4411;DHT22;2218;51.408;7.208;2022-12-18T05:01:26;17.80;21.30
4411;DHT22;2218;51.408;7.208;2022-12-18T05:03:53;17.70;21.30
4411;DHT22;2218;51.408;7.208;2022-12-18T05:06:21;17.80;21.30
4411;DHT22;2218;51.408;7.208;2022-12-18T05:08:48;17.80;21.30
4411;DHT22;2218;51.408;7.208;2022-12-18T05:11:15;17.80;21.40
4411;DHT22;2218;51.408;7.208;2022-12-18T05:13:43;17.80;21.30
4411;DHT22;2218;51.408;7.208;2022-12-18T05:16:11;17.80;21.30
4411;DHT22;2218;51.408;7.208;2022-12-18T05:18:40;17.70;21.30
4411;DHT22;2218;51.408;7.208;2022-12-18T05:21:06;17.70;21.30
4411;DHT22;2218;51.408;7.208;2022-12-18T05:23:37;17.70;21.30
4411;DHT22;2218;51.408;7.208;2022-12-18T05:26:05;17.80;21.30
4411;DHT22;2218;51.408;7.208;2022-12-18T05:28:35;17.70;21.30
4411;DHT22;2218;51.408;7.208;2022-12-18T05:31:03;17.70;21.20
4411;DHT22;2218;51.408;7.208;2022-12-18T05:33:33;17.80;21.30
4411;DHT22;2218;51.408;7.208;2022-12-18T05:36:03;17.80;21.30
4411;DHT22;2218;51.408;7.208;2022-12-18T05:38:32;17.80;21.30
4411;DHT22;2218;51.408;7.208;2022-12-18T05:41:02;17.70;21.20
4411;DHT22;2218;51.408;7.208;2022-12-18T05:43:29;17.80;21.30
4411;DHT22;2218;51.408;7.208;2022-12-18T05:45:56;17.70;21.20
4411;DHT22;2218;51.408;7.208;2022-12-18T05:48:23;17.80;21.30
4411;DHT22;2218;51.408;7.208;2022-12-18T05:50:50;17.80;21.30
4411;DHT22;2218;51.408;7.208;2022-12-18T05:53:19;17.80;21.30
4411;DHT22;2218;51.408;7.208;2022-12-18T05:55:47;17.80;21.30
4411;DHT22;2218;51.408;7.208;2022-12-18T05:58:15;17.80;21.30
4411;DHT22;2218;51.408;7.208;2022-12-18T06:00:45;17.80;21.30
4411;DHT22;2218;51.408;7.208;2022-12-18T06:03:13;17.80;21.20
4411;DHT22;2218;51.408;7.208;2022-12-18T06:05:42;17.80;21.30
4411;DHT22;2218;51.408;7.208;2022-12-18T06:08:10;17.80;21.30
4411;DHT22;2218;51.408;7.208;2022-12-18T06:10:39;17.80;21.20
4411;DHT22;2218;51.408;7.208;2022-12-18T06:13:06;17.80;21.20
4411;DHT22;2218;51.408;7.208;2022-12-18T06:15:37;17.80;21.20
4411;DHT22;2218;51.408;7.208;2022-12-18T06:18:04;17.80;21.20
4411;DHT22;2218;51.408;7.208;2022-12-18T06:20:31;17.80;21.20
4411;DHT22;2218;51.408;7.208;2022-12-18T06:22:58;17.80;21.20
4411;DHT22;2218;51.408;7.208;2022-12-18T06:25:25;17.80;21.20
4411;DHT22;2218;51.408;7.208;2022-12-18T06:27:52;17.70;21.10
4411;DHT22;2218;51.408;7.208;2022-12-18T06:30:19;17.80;21.20
4411;DHT22;2218;51.408;7.208;2022-12-18T06:32:49;17.80;21.20
4411;DHT22;2218;51.408;7.208;2022-12-18T06:35:16;17.80;21.20
4411;DHT22;2218;51.408;7.208;2022-12-18T06:37:43;17.80;21.20
4411;DHT22;2218;51.408;7.208;2022-12-18T06:40:10;17.80;21.20
4411;DHT22;2218;51.408;7.208;2022-12-18T06:42:37;17.80;21.20
4411;DHT22;2218;51.408;7.208;2022-12-18T06:45:04;17.80;21.10
4411;DHT22;2218;51.408;7.208;2022-12-18T06:47:32;17.80;21.20
4411;DHT22;2218;51.408;7.208;2022-12-18T06:50:00;17.80;21.10
4411;DHT22;2218;51.408;7.208;2022-12-18T06:52:27;17.80;21.10
4411;DHT22;2218;51.408;7.208;2022-12-18T06:54:54;17.80;21.10
4411;DHT22;2218;51.408;7.208;2022-12-18T06:57:21;17.80;21.10
4411;DHT22;2218;51.408;7.208;2022-12-18T06:59:48;17.80;21.10
4411;DHT22;2218;51.408;7.208;2022-12-18T07:02:14;17.80;21.10
4411;DHT22;2218;51.408;7.208;2022-12-18T07:04:41;17.80;21.10
4411;DHT22;2218;51.408;7.208;2022-12-18T07:07:10;17.80;21.00
4411;DHT22;2218;51.408;7.208;2022-12-18T07:09:36;17.80;21.00
4411;DHT22;2218;51.408;7.208;2022-12-18T07:12:04;17.80;21.00
4411;DHT22;2218;51.408;7.208;2022-12-18T07:14:32;17.70;20.90
4411;DHT22;2218;51.408;7.208;2022-12-18T07:16:59;17.70;20.90
4411;DHT22;2218;51.408;7.208;2022-12-18T07:19:26;17.80;21.00
4411;DHT22;2218;51.408;7.208;2022-12-18T07:21:52;17.80;21.00
4411;DHT22;2218;51.408;7.208;2022-12-18T07:24:21;17.80;21.00
4411;DHT22;2218;51.408;7.208;2022-12-18T07:26:48;17.80;20.90
4411;DHT22;2218;51.408;7.208;2022-12-18T07:29:15;17.80;20.90
4411;DHT22;2218;51.408;7.208;2022-12-18T07:31:42;17.70;20.90
4411;DHT22;2218;51.408;7.208;2022-12-18T07:34:10;17.80;20.90
4411;DHT22;2218;51.408;7.208;2022-12-18T07:36:38;17.70;20.90
4411;DHT22;2218;51.408;7.208;2022-12-18T07:39:05;17.80;20.90
4411;DHT22;2218;51.408;7.208;2022-12-18T07:41:33;17.70;20.90
4411;DHT22;2218;51.408;7.208;2022-12-18T07:44:09;17.80;20.90
4411;DHT22;2218;51.408;7.208;2022-12-18T07:46:36;17.80;20.90
4411;DHT22;2218;51.408;7.208;2022-12-18T07:49:03;17.80;20.80
4411;DHT22;2218;51.408;7.208;2022-12-18T07:51:30;17.80;20.80
4411;DHT22;2218;51.408;7.208;2022-12-18T07:53:57;17.80;20.80
4411;DHT22;2218;51.408;7.208;2022-12-18T07:56:24;17.80;20.80
4411;DHT22;2218;51.408;7.208;2022-12-18T07:58:52;17.80;20.80
4411;DHT22;2218;51.408;7.208;2022-12-18T08:01:20;17.80;20.70
4411;DHT22;2218;51.408;7.208;2022-12-18T08:03:46;17.80;20.70
4411;DHT22;2218;51.408;7.208;2022-12-18T08:06:13;17.80;20.70
4411;DHT22;2218;51.408;7.208;2022-12-18T08:08:40;17.80;20.70
4411;DHT22;2218;51.408;7.208;2022-12-18T08:11:07;17.90;20.80
4411;DHT22;2218;51.408;7.208;2022-12-18T08:13:34;17.90;20.80
4411;DHT22;2218;51.408;7.208;2022-12-18T08:16:05;17.90;20.60
4411;DHT22;2218;51.408;7.208;2022-12-18T08:18:33;17.90;20.70
4411;DHT22;2218;51.408;7.208;2022-12-18T08:21:08;17.90;20.70
4411;DHT22;2218;51.408;7.208;2022-12-18T08:23:35;17.90;20.80
4411;DHT22;2218;51.408;7.208;2022-12-18T08:26:02;17.90;21.10
4411;DHT22;2218;51.408;7.208;2022-12-18T08:28:29;17.90;20.70
4411;DHT22;2218;51.408;7.208;2022-12-18T08:30:56;17.90;20.60
4411;DHT22;2218;51.408;7.208;2022-12-18T08:33:25;17.90;20.70
4411;DHT22;2218;51.408;7.208;2022-12-18T08:35:52;17.90;20.60
4411;DHT22;2218;51.408;7.208;2022-12-18T08:38:19;17.90;20.60
4411;DHT22;2218;51.408;7.208;2022-12-18T08:40:46;17.90;20.60
4411;DHT22;2218;51.408;7.208;2022-12-18T08:43:13;17.90;20.60
4411;DHT22;2218;51.408;7.208;2022-12-18T08:45:58;17.90;20.60
4411;DHT22;2218;51.408;7.208;2022-12-18T08:48:26;17.90;20.60
4411;DHT22;2218;51.408;7.208;2022-12-18T08:50:56;17.90;20.60
4411;DHT22;2218;51.408;7.208;2022-12-18T08:53:27;17.90;20.60
4411;DHT22;2218;51.408;7.208;2022-12-18T08:55:56;17.90;20.60
4411;DHT22;2218;51.408;7.208;2022-12-18T08:58:23;17.90;20.60
4411;DHT22;2218;51.408;7.208;2022-12-18T09:00:50;17.90;20.60
4411;DHT22;2218;51.408;7.208;2022-12-18T09:03:19;17.90;20.50
4411;DHT22;2218;51.408;7.208;2022-12-18T09:05:49;17.90;20.50
4411;DHT22;2218;51.408;7.208;2022-12-18T09:08:16;17.90;20.50
4411;DHT22;2218;51.408;7.208;2022-12-18T09:10:44;17.90;20.50
4411;DHT22;2218;51.408;7.208;2022-12-18T09:13:12;17.90;20.50
4411;DHT22;2218;51.408;7.208;2022-12-18T09:15:41;17.90;20.50
4411;DHT22;2218;51.408;7.208;2022-12-18T09:18:09;17.90;20.50
4411;DHT22;2218;51.408;7.208;2022-12-18T09:20:36;17.90;20.40
4411;DHT22;2218;51.408;7.208;2022-12-18T09:23:05;17.90;20.50
4411;DHT22;2218;51.408;7.208;2022-12-18T09:25:33;17.90;20.40
4411;DHT22;2218;51.408;7.208;2022-12-18T09:28:01;17.90;20.50
4411;DHT22;2218;51.408;7.208;2022-12-18T09:30:28;17.90;20.50
4411;DHT22;2218;51.408;7.208;2022-12-18T09:32:56;17.90;20.40
4411;DHT22;2218;51.408;7.208;2022-12-18T09:35:22;17.90;20.50
4411;DHT22;2218;51.408;7.208;2022-12-18T09:37:49;17.90;20.40
4411;DHT22;2218;51.408;7.208;2022-12-18T09:40:20;17.90;20.40
4411;DHT22;2218;51.408;7.208;2022-12-18T09:42:52;17.90;20.40
4411;DHT22;2218;51.408;7.208;2022-12-18T09:45:22;17.90;20.40
4411;DHT22;2218;51.408;7.208;2022-12-18T09:47:51;17.90;20.40
4411;DHT22;2218;51.408;7.208;2022-12-18T09:50:25;17.90;20.40
4411;DHT22;2218;51.408;7.208;2022-12-18T09:52:58;17.90;20.30
4411;DHT22;2218;51.408;7.208;2022-12-18T09:55:34;17.90;20.30
4411;DHT22;2218;51.408;7.208;2022-12-18T09:58:07;17.90;20.40
4411;DHT22;2218;51.408;7.208;2022-12-18T10:00:42;17.90;20.30
4411;DHT22;2218;51.408;7.208;2022-12-18T10:03:10;17.90;20.30
4411;DHT22;2218;51.408;7.208;2022-12-18T10:05:44;17.90;20.30
4411;DHT22;2218;51.408;7.208;2022-12-18T10:08:24;17.90;20.30
4411;DHT22;2218;51.408;7.208;2022-12-18T10:11:03;17.90;20.30
4411;DHT22;2218;51.408;7.208;2022-12-18T10:13:50;17.90;20.30
4411;DHT22;2218;51.408;7.208;2022-12-18T10:16:26;17.90;20.30
4411;DHT22;2218;51.408;7.208;2022-12-18T10:19:21;17.90;20.30
4411;DHT22;2218;51.408;7.208;2022-12-18T10:22:01;17.90;20.20
4411;DHT22;2218;51.408;7.208;2022-12-18T10:24:40;17.90;20.20
4411;DHT22;2218;51.408;7.208;2022-12-18T10:27:14;17.90;20.30
4411;DHT22;2218;51.408;7.208;2022-12-18T10:29:44;17.90;20.30
4411;DHT22;2218;51.408;7.208;2022-12-18T10:32:14;18.00;20.30
4411;DHT22;2218;51.408;7.208;2022-12-18T10:34:47;17.90;20.30
4411;DHT22;2218;51.408;7.208;2022-12-18T10:37:18;18.00;20.30
4411;DHT22;2218;51.408;7.208;2022-12-18T10:39:47;18.00;20.30
4411;DHT22;2218;51.408;7.208;2022-12-18T10:42:34;17.90;20.30
4411;DHT22;2218;51.408;7.208;2022-12-18T10:45:05;18.00;20.30
4411;DHT22;2218;51.408;7.208;2022-12-18T10:47:36;18.00;20.30
4411;DHT22;2218;51.408;7.208;2022-12-18T10:50:19;18.00;20.30
4411;DHT22;2218;51.408;7.208;2022-12-18T10:52:57;18.00;20.30
4411;DHT22;2218;51.408;7.208;2022-12-18T10:55:30;18.00;20.20
4411;DHT22;2218;51.408;7.208;2022-12-18T10:58:20;18.00;20.30
4411;DHT22;2218;51.408;7.208;2022-12-18T11:01:09;18.00;20.20
4411;DHT22;2218;51.408;7.208;2022-12-18T11:03:39;18.00;20.20
4411;DHT22;2218;51.408;7.208;2022-12-18T11:06:10;17.90;20.20
4411;DHT22;2218;51.408;7.208;2022-12-18T11:08:38;18.00;20.20
4411;DHT22;2218;51.408;7.208;2022-12-18T11:11:14;17.90;20.10
4411;DHT22;2218;51.408;7.208;2022-12-18T11:13:57;18.00;20.10
4411;DHT22;2218;51.408;7.208;2022-12-18T11:16:28;18.00;20.10
4411;DHT22;2218;51.408;7.208;2022-12-18T11:19:12;17.90;20.10
4411;DHT22;2218;51.408;7.208;2022-12-18T11:21:48;18.00;20.20
4411;DHT22;2218;51.408;7.208;2022-12-18T11:24:22;18.00;20.20
4411;DHT22;2218;51.408;7.208;2022-12-18T11:26:54;17.90;20.10
4411;DHT22;2218;51.408;7.208;2022-12-18T11:29:29;18.00;20.10
4411;DHT22;2218;51.408;7.208;2022-12-18T11:32:25;17.90;20.10
4411;DHT22;2218;51.408;7.208;2022-12-18T11:35:01;17.90;20.10
4411;DHT22;2218;51.408;7.208;2022-12-18T11:37:36;18.00;20.20
4411;DHT22;2218;51.408;7.208;2022-12-18T11:40:06;17.90;20.10
4411;DHT22;2218;51.408;7.208;2022-12-18T11:42:45;18.00;20.10
4411;DHT22;2218;51.408;7.208;2022-12-18T11:45:28;18.00;20.10
4411;DHT22;2218;51.408;7.208;2022-12-18T11:48:02;18.00;20.20
4411;DHT22;2218;51.408;7.208;2022-12-18T11:50:44;18.00;20.10
4411;DHT22;2218;51.408;7.208;2022-12-18T11:53:16;18.00;20.10
4411;DHT22;2218;51.408;7.208;2022-12-18T11:55:52;18.00;20.10
4411;DHT22;2218;51.408;7.208;2022-12-18T11:58:41;18.00;20.10
4411;DHT22;2218;51.408;7.208;2022-12-18T12:01:23;18.00;20.10
4411;DHT22;2218;51.408;7.208;2022-12-18T12:04:22;18.00;20.10
4411;DHT22;2218;51.408;7.208;2022-12-18T12:07:09;18.00;20.00
4411;DHT22;2218;51.408;7.208;2022-12-18T12:09:53;18.00;20.10
4411;DHT22;2218;51.408;7.208;2022-12-18T12:12:36;18.00;20.10
4411;DHT22;2218;51.408;7.208;2022-12-18T12:15:19;18.00;20.00
4411;DHT22;2218;51.408;7.208;2022-12-18T12:18:05;18.00;20.00
4411;DHT22;2218;51.408;7.208;2022-12-18T12:20:49;18.00;20.00
4411;DHT22;2218;51.408;7.208;2022-12-18T12:23:29;18.00;20.00
4411;DHT22;2218;51.408;7.208;2022-12-18T12:26:07;18.00;20.00
4411;DHT22;2218;51.408;7.208;2022-12-18T12:28:52;18.00;20.00
4411;DHT22;2218;51.408;7.208;2022-12-18T12:31:38;18.00;20.00
4411;DHT22;2218;51.408;7.208;2022-12-18T12:34:22;18.00;19.90
4411;DHT22;2218;51.408;7.208;2022-12-18T12:37:04;18.00;19.90
4411;DHT22;2218;51.408;7.208;2022-12-18T12:39:44;18.00;19.90
4411;DHT22;2218;51.408;7.208;2022-12-18T12:42:18;18.00;19.90
4411;DHT22;2218;51.408;7.208;2022-12-18T12:45:14;18.00;19.90
4411;DHT22;2218;51.408;7.208;2022-12-18T12:47:45;18.00;19.90
4411;DHT22;2218;51.408;7.208;2022-12-18T12:50:18;18.00;19.90
4411;DHT22;2218;51.408;7.208;2022-12-18T12:52:49;18.00;19.80
4411;DHT22;2218;51.408;7.208;2022-12-18T12:55:21;17.90;19.80
4411;DHT22;2218;51.408;7.208;2022-12-18T12:57:58;18.00;20.30
4411;DHT22;2218;51.408;7.208;2022-12-18T13:00:39;17.90;19.80
4411;DHT22;2218;51.408;7.208;2022-12-18T13:03:15;18.00;19.90
4411;DHT22;2218;51.408;7.208;2022-12-18T13:06:02;18.00;20.30
4411;DHT22;2218;51.408;7.208;2022-12-18T13:08:53;18.00;19.90
4411;DHT22;2218;51.408;7.208;2022-12-18T13:11:35;18.00;19.90
4411;DHT22;2218;51.408;7.208;2022-12-18T13:14:28;18.00;19.80
4411;DHT22;2218;51.408;7.208;2022-12-18T13:17:28;18.00;20.30
4411;DHT22;2218;51.408;7.208;2022-12-18T13:20:14;18.00;19.80
4411;DHT22;2218;51.408;7.208;2022-12-18T13:22:45;17.90;19.80
4411;DHT22;2218;51.408;7.208;2022-12-18T13:25:28;17.90;19.80
4411;DHT22;2218;51.408;7.208;2022-12-18T13:28:07;17.90;19.80
4411;DHT22;2218;51.408;7.208;2022-12-18T13:30:55;18.00;19.80
4411;DHT22;2218;51.408;7.208;2022-12-18T13:33:40;18.00;19.80
4411;DHT22;2218;51.408;7.208;2022-12-18T13:36:13;17.90;19.70
4411;DHT22;2218;51.408;7.208;2022-12-18T13:38:43;17.90;19.70
4411;DHT22;2218;51.408;7.208;2022-12-18T13:41:23;17.90;19.70
4411;DHT22;2218;51.408;7.208;2022-12-18T13:43:53;17.90;19.70
4411;DHT22;2218;51.408;7.208;2022-12-18T13:46:26;17.90;19.70
4411;DHT22;2218;51.408;7.208;2022-12-18T13:48:57;17.90;19.70
4411;DHT22;2218;51.408;7.208;2022-12-18T13:51:27;17.90;19.70
4411;DHT22;2218;51.408;7.208;2022-12-18T13:54:00;17.90;19.70
4411;DHT22;2218;51.408;7.208;2022-12-18T13:56:31;17.90;19.70
4411;DHT22;2218;51.408;7.208;2022-12-18T13:59:14;17.90;19.70
4411;DHT22;2218;51.408;7.208;2022-12-18T14:01:49;17.90;19.70
4411;DHT22;2218;51.408;7.208;2022-12-18T14:04:21;17.90;19.70
4411;DHT22;2218;51.408;7.208;2022-12-18T14:06:53;17.90;19.70
4411;DHT22;2218;51.408;7.208;2022-12-18T14:09:27;17.90;19.80
4411;DHT22;2218;51.408;7.208;2022-12-18T14:11:57;17.90;19.80
4411;DHT22;2218;51.408;7.208;2022-12-18T14:14:41;17.90;19.80
4411;DHT22;2218;51.408;7.208;2022-12-18T14:17:11;17.90;19.80
4411;DHT22;2218;51.408;7.208;2022-12-18T14:19:42;17.90;19.80
4411;DHT22;2218;51.408;7.208;2022-12-18T14:22:17;17.90;19.80
4411;DHT22;2218;51.408;7.208;2022-12-18T14:25:04;17.90;19.80
4411;DHT22;2218;51.408;7.208;2022-12-18T14:27:42;17.90;19.80
4411;DHT22;2218;51.408;7.208;2022-12-18T14:30:28;17.90;19.80
4411;DHT22;2218;51.408;7.208;2022-12-18T14:33:04;17.90;19.90
4411;DHT22;2218;51.408;7.208;2022-12-18T14:35:34;17.90;19.90
4411;DHT22;2218;51.408;7.208;2022-12-18T14:38:19;17.90;19.90
4411;DHT22;2218;51.408;7.208;2022-12-18T14:40:54;17.90;19.90
4411;DHT22;2218;51.408;7.208;2022-12-18T14:43:26;17.90;19.90
4411;DHT22;2218;51.408;7.208;2022-12-18T14:45:54;17.90;19.90
4411;DHT22;2218;51.408;7.208;2022-12-18T14:48:35;17.90;19.90
4411;DHT22;2218;51.408;7.208;2022-12-18T14:51:05;17.90;19.90
4411;DHT22;2218;51.408;7.208;2022-12-18T14:53:44;17.90;19.90
4411;DHT22;2218;51.408;7.208;2022-12-18T14:56:16;17.90;19.90
4411;DHT22;2218;51.408;7.208;2022-12-18T14:58:47;17.80;19.90
4411;DHT22;2218;51.408;7.208;2022-12-18T15:01:21;17.90;19.90
4411;DHT22;2218;51.408;7.208;2022-12-18T15:03:52;17.90;20.00
4411;DHT22;2218;51.408;7.208;2022-12-18T15:06:27;17.90;19.90
4411;DHT22;2218;51.408;7.208;2022-12-18T15:08:57;17.90;20.00
4411;DHT22;2218;51.408;7.208;2022-12-18T15:11:32;17.90;20.00
4411;DHT22;2218;51.408;7.208;2022-12-18T15:17:15;17.90;20.00
4411;DHT22;2218;51.408;7.208;2022-12-18T15:19:45;17.90;20.00
4411;DHT22;2218;51.408;7.208;2022-12-18T15:22:20;17.90;20.00
4411;DHT22;2218;51.408;7.208;2022-12-18T15:24:49;17.80;19.90
4411;DHT22;2218;51.408;7.208;2022-12-18T15:27:26;17.90;20.00
4411;DHT22;2218;51.408;7.208;2022-12-18T15:30:16;17.90;20.00
4411;DHT22;2218;51.408;7.208;2022-12-18T15:32:46;17.80;19.90
4411;DHT22;2218;51.408;7.208;2022-12-18T15:35:17;17.80;19.90
4411;DHT22;2218;51.408;7.208;2022-12-18T15:37:46;17.90;20.00
4411;DHT22;2218;51.408;7.208;2022-12-18T15:40:14;17.90;20.40
4411;DHT22;2218;51.408;7.208;2022-12-18T15:42:44;17.80;19.90
4411;DHT22;2218;51.408;7.208;2022-12-18T15:45:30;17.80;19.90
4411;DHT22;2218;51.408;7.208;2022-12-18T15:47:57;17.90;20.00
4411;DHT22;2218;51.408;7.208;2022-12-18T15:50:24;17.90;20.00
4411;DHT22;2218;51.408;7.208;2022-12-18T15:52:52;17.80;19.90
4411;DHT22;2218;51.408;7.208;2022-12-18T15:55:22;17.80;19.90
4411;DHT22;2218;51.408;7.208;2022-12-18T15:58:10;17.80;19.90
4411;DHT22;2218;51.408;7.208;2022-12-18T16:00:39;17.80;20.00
4411;DHT22;2218;51.408;7.208;2022-12-18T16:03:06;17.80;20.00
4411;DHT22;2218;51.408;7.208;2022-12-18T16:05:33;17.80;19.90
4411;DHT22;2218;51.408;7.208;2022-12-18T16:08:00;17.80;20.00
4411;DHT22;2218;51.408;7.208;2022-12-18T16:10:27;17.80;19.90
4411;DHT22;2218;51.408;7.208;2022-12-18T16:12:54;17.80;20.00
4411;DHT22;2218;51.408;7.208;2022-12-18T16:15:23;17.80;20.00
4411;DHT22;2218;51.408;7.208;2022-12-18T16:17:49;17.80;20.00
4411;DHT22;2218;51.408;7.208;2022-12-18T16:20:18;17.80;20.00
4411;DHT22;2218;51.408;7.208;2022-12-18T16:22:48;17.80;20.00
4411;DHT22;2218;51.408;7.208;2022-12-18T16:25:26;17.80;20.00
4411;DHT22;2218;51.408;7.208;2022-12-18T16:27:55;17.80;20.00
4411;DHT22;2218;51.408;7.208;2022-12-18T16:30:26;17.80;20.00
4411;DHT22;2218;51.408;7.208;2022-12-18T16:32:56;17.80;20.00
4411;DHT22;2218;51.408;7.208;2022-12-18T16:35:24;17.80;20.00
4411;DHT22;2218;51.408;7.208;2022-12-18T16:37:52;17.80;20.00
4411;DHT22;2218;51.408;7.208;2022-12-18T16:40:19;17.80;20.00